createdAt,value
2018-04-25T00:02:00.402Z,15.41
2018-04-25T00:07:51.128Z,14.65
2018-04-25T00:13:41.833Z,12.16
2018-04-25T00:19:32.640Z,13.29
2018-04-25T00:25:23.259Z,23.98
2018-04-25T00:31:13.995Z,14.5
2018-04-25T00:37:04.678Z,16.6
2018-04-25T00:42:55.414Z,14
2018-04-25T00:48:46.146Z,16.24
2018-04-25T00:54:36.879Z,14.3
2018-04-25T01:00:27.611Z,12.24
2018-04-25T01:06:18.307Z,14.74
2018-04-25T01:12:09.062Z,19.3
2018-04-25T01:17:59.793Z,16.04
2018-04-25T01:23:50.548Z,22.7
2018-04-25T01:29:41.240Z,16.13
2018-04-25T01:35:31.947Z,13.04
2018-04-25T01:41:22.675Z,14.23
2018-04-25T01:47:13.436Z,17.96
2018-04-25T01:53:04.115Z,12.75
2018-04-25T01:58:54.856Z,16.2
2018-04-25T02:04:45.592Z,13.01
2018-04-25T02:10:36.284Z,12.95
2018-04-25T02:16:27.012Z,16.19
2018-04-25T02:22:17.725Z,17.01
2018-04-25T02:28:08.436Z,10.36
2018-04-25T02:33:59.278Z,13.84
2018-04-25T02:39:49.896Z,13.51
2018-04-25T02:45:40.582Z,13.39
2018-04-25T02:51:31.303Z,17.37
2018-04-25T02:57:22.104Z,13.7
2018-04-25T03:03:12.771Z,11.25
2018-04-25T03:09:03.473Z,15.01
2018-04-25T03:14:54.234Z,14.71
2018-04-25T03:20:44.970Z,13.73
2018-04-25T03:26:35.654Z,11.99
2018-04-25T03:32:26.385Z,12.2
2018-04-25T03:38:17.111Z,12.3
2018-04-25T03:44:07.868Z,13.45
2018-04-25T03:49:58.554Z,13.12
2018-04-25T03:55:49.259Z,10.51
2018-04-25T04:01:39.942Z,10.05
2018-04-25T04:07:30.709Z,14.53
2018-04-25T04:13:21.421Z,14
2018-04-25T04:19:12.119Z,10.61
2018-04-25T04:25:02.912Z,9.05
2018-04-25T04:30:53.564Z,15.61
2018-04-25T04:36:44.280Z,13.98
2018-04-25T04:42:35.037Z,16.44
2018-04-25T04:48:25.769Z,16.97
2018-04-25T04:54:16.450Z,13.14
2018-04-25T05:00:07.166Z,16.3
2018-04-25T05:05:57.894Z,17.17
2018-04-25T05:11:48.595Z,8.91
2018-04-25T05:17:39.317Z,11.32
2018-04-25T05:23:30.036Z,17.13
2018-04-25T05:29:20.774Z,19.28
2018-04-25T05:35:11.508Z,21.58
2018-04-25T05:41:02.190Z,17.51
2018-04-25T05:46:52.947Z,29.37
2018-04-25T05:52:43.599Z,22.93
2018-04-25T05:58:34.358Z,16.27
2018-04-25T06:04:25.064Z,19.37
2018-04-25T06:10:15.780Z,18
2018-04-25T06:16:06.497Z,15.3
2018-04-25T06:21:57.224Z,19.75
2018-04-25T06:27:47.948Z,20.44
2018-04-25T06:33:38.649Z,21.43
2018-04-25T06:39:29.460Z,15.98
2018-04-25T06:45:20.072Z,20.74
2018-04-25T06:51:10.754Z,22.61
2018-04-25T06:57:01.526Z,22.95
2018-04-25T07:02:52.250Z,21.49
2018-04-25T07:08:42.971Z,21.25
2018-04-25T07:14:33.700Z,23.22
2018-04-25T07:20:24.391Z,18.16
2018-04-25T07:26:15.145Z,18.42
2018-04-25T07:32:05.884Z,23.2
2018-04-25T07:37:56.539Z,21.51
2018-04-25T07:43:47.270Z,29.35
2018-04-25T07:49:37.989Z,26.51
2018-04-25T07:55:28.712Z,27.82
2018-04-25T08:01:19.433Z,20.22
2018-04-25T08:07:10.137Z,24.16
2018-04-25T08:13:00.858Z,27.26
2018-04-25T08:18:51.595Z,20.87
2018-04-25T08:24:42.302Z,26.64
2018-04-25T08:30:33.085Z,20.09
2018-04-25T08:36:23.756Z,16.87
2018-04-25T08:42:14.515Z,15.7
2018-04-25T08:48:05.215Z,16.09
2018-04-25T08:53:56.031Z,19.3
2018-04-25T08:59:46.718Z,29.39
2018-04-25T09:05:37.443Z,34.92
2018-04-25T09:11:28.146Z,16.29
2018-04-25T09:17:18.881Z,12
2018-04-25T09:23:09.565Z,15.76
2018-04-25T09:29:00.300Z,12.84
2018-04-25T09:34:51.036Z,14.15
2018-04-25T09:40:41.808Z,9.19
2018-04-25T09:46:32.592Z,9.6
2018-04-25T09:52:23.261Z,8.75
2018-04-25T09:58:14.030Z,13.74
2018-04-25T10:04:04.867Z,11.63
2018-04-25T10:09:55.475Z,8
2018-04-25T10:15:46.290Z,15.14
2018-04-25T10:21:37.013Z,8.77
2018-04-25T10:27:27.721Z,11.52
2018-04-25T10:33:18.482Z,14.12
2018-04-25T10:39:09.197Z,10.67
2018-04-25T10:44:59.924Z,15.15
2018-04-25T10:50:50.666Z,10.38
2018-04-25T10:56:41.459Z,13.49
2018-04-25T11:02:32.273Z,9.96
2018-04-25T11:08:22.984Z,9.18
2018-04-25T11:14:13.699Z,10.66
2018-04-25T11:20:04.450Z,12.68
2018-04-25T11:25:55.189Z,10.63
2018-04-25T11:31:45.983Z,12.52
2018-04-25T11:37:36.742Z,13.1
2018-04-25T11:43:27.417Z,14.7
2018-04-25T11:49:18.176Z,11.19
2018-04-25T11:55:08.992Z,10.56
2018-04-25T12:00:59.729Z,11.98
2018-04-25T12:06:50.470Z,14.21
2018-04-25T12:12:41.240Z,9.74
2018-04-25T12:18:31.933Z,11.5
2018-04-25T12:24:22.740Z,11.64
2018-04-25T12:30:13.484Z,9.19
2018-04-25T12:36:04.240Z,10.63
2018-04-25T12:41:55.050Z,10.8
2018-04-25T12:47:45.758Z,10.1
2018-04-25T12:53:36.542Z,7.8
2018-04-25T12:59:27.278Z,10.34
2018-04-25T13:05:18.055Z,9.35
2018-04-25T13:11:08.801Z,7.24
2018-04-25T13:16:59.581Z,6.72
2018-04-25T13:22:50.375Z,7.61
2018-04-25T13:28:41.116Z,10.13
2018-04-25T13:34:31.893Z,10.83
2018-04-25T13:40:22.676Z,10.09
2018-04-25T13:46:13.426Z,10.15
2018-04-25T13:52:04.220Z,6.22
2018-04-25T13:57:55.000Z,7.62
2018-04-25T14:03:45.743Z,8.12
2018-04-25T14:09:36.509Z,6.32
2018-04-25T14:15:27.315Z,7.34
2018-04-25T14:21:18.065Z,5.45
2018-04-25T14:27:08.892Z,8.06
2018-04-25T14:32:59.649Z,11.51
2018-04-25T14:38:50.415Z,5.65
2018-04-25T14:44:41.213Z,5.9
2018-04-25T14:50:31.967Z,9.66
2018-04-25T14:56:22.763Z,15.38
2018-04-25T15:02:13.617Z,11.48
2018-04-25T15:08:04.350Z,7.59
2018-04-25T15:13:55.165Z,10.86
2018-04-25T15:19:45.941Z,9.94
2018-04-25T15:25:36.664Z,8.42
2018-04-25T15:31:27.441Z,8.05
2018-04-25T15:37:18.248Z,6.34
2018-04-25T15:43:09.011Z,10.17
2018-04-25T15:48:59.763Z,9.34
2018-04-25T15:54:50.508Z,10.46
2018-04-25T16:00:41.310Z,14.13
2018-04-25T16:06:32.086Z,8.82
2018-04-25T16:12:22.895Z,11.37
2018-04-25T16:18:13.563Z,9.23
2018-04-25T16:24:04.326Z,9.25
2018-04-25T16:29:55.099Z,7.2
2018-04-25T16:35:45.828Z,7.25
2018-04-25T16:41:36.597Z,8.05
2018-04-25T16:47:27.360Z,11.81
2018-04-25T16:53:18.176Z,8.53
2018-04-25T16:59:08.909Z,10.89
2018-04-25T17:04:59.616Z,12.82
2018-04-25T17:10:50.454Z,9.69
2018-04-25T17:16:41.146Z,8.14
2018-04-25T17:22:31.884Z,10.66
2018-04-25T17:28:22.617Z,10.6
2018-04-25T17:34:13.421Z,9.44
2018-04-25T17:40:04.142Z,13.07
2018-04-25T17:45:54.882Z,16.28
2018-04-25T17:51:45.675Z,15.58
2018-04-25T17:57:36.482Z,9.45
2018-04-25T18:03:27.261Z,8.77
2018-04-25T18:09:17.873Z,13.98
2018-04-25T18:15:08.655Z,15.17
2018-04-25T18:20:59.374Z,12.57
2018-04-25T18:26:50.150Z,9.65
2018-04-25T18:32:40.963Z,11.47
2018-04-25T18:38:31.676Z,16.61
2018-04-25T18:44:22.407Z,13.49
2018-04-25T18:50:13.154Z,14.2
2018-04-25T18:56:03.903Z,13.07
2018-04-25T19:01:54.641Z,12.59
2018-04-25T19:07:45.376Z,11.32
2018-04-25T19:13:36.119Z,16.38
2018-04-25T19:19:26.909Z,14.68
2018-04-25T19:25:17.624Z,13.5
2018-04-25T19:31:08.312Z,14.03
2018-04-25T19:36:59.130Z,13.99
2018-04-25T19:42:49.832Z,14.39
2018-04-25T19:48:40.579Z,11.92
2018-04-25T19:54:31.342Z,15.21
2018-04-25T20:00:22.031Z,18.21
2018-04-25T20:06:12.797Z,14.85
2018-04-25T20:12:03.630Z,12.44
2018-04-25T20:17:54.247Z,15.56
2018-04-25T20:23:45.019Z,12.61
2018-04-25T20:29:35.775Z,19.04
2018-04-25T20:35:26.496Z,15.76
2018-04-25T20:41:17.195Z,11.13
2018-04-25T20:47:07.950Z,17.54
2018-04-25T20:52:58.678Z,21.51
2018-04-25T20:58:49.404Z,12.97
2018-04-25T21:04:40.120Z,14.75
2018-04-25T21:10:30.852Z,13.41
2018-04-25T21:16:21.654Z,14.9
2018-04-25T21:22:12.350Z,13.79
2018-04-25T21:28:03.041Z,12.03
2018-04-25T21:33:53.807Z,15.19
2018-04-25T21:39:44.519Z,11.74
2018-04-25T21:45:35.259Z,12.79
2018-04-25T21:51:26.023Z,18.45
2018-04-25T21:57:16.789Z,14.36
2018-04-25T22:03:07.470Z,15.44
2018-04-25T22:08:58.191Z,13.56
2018-04-25T22:14:48.932Z,15.57
2018-04-25T22:20:39.673Z,16.94
2018-04-25T22:26:30.377Z,16.65
2018-04-25T22:32:21.136Z,14.34
2018-04-25T22:38:11.857Z,12.75
2018-04-25T22:44:02.586Z,13.67
2018-04-25T22:49:53.305Z,12.05
2018-04-25T22:55:44.016Z,11.6
2018-04-25T23:01:34.756Z,12.46
2018-04-25T23:07:25.526Z,12.64
2018-04-25T23:13:16.211Z,13.65
2018-04-25T23:19:06.951Z,16.46
2018-04-25T23:24:57.752Z,15.41
2018-04-25T23:30:48.394Z,16.56
2018-04-25T23:36:39.130Z,18.02
2018-04-25T23:42:29.854Z,15.55
2018-04-25T23:48:20.604Z,20.87
2018-04-25T23:54:11.274Z,16.09
